Time;durP1;ratioP1;P1;durP2;ratioP2;P2;SDS_P1;SDS_P2;PMS_P1;PMS_P2;Temp;Humidity;BMP_temperature;BMP_pressure;BME280_temperature;BME280_humidity;BME280_pressure;Samples;Min_cycle;Max_cycle;Signal;HPM_P1;HPM_P2
2021/09/14 00:01:59;;;;;;;;;5.00;5.00;;;;;;;;5089108;27;45445;-77
2021/09/14 00:04:24;;;;;;;;;7.33;5.67;;;;;;;;5091997;27;45362;-78
2021/09/14 00:06:50;;;;;;;;;5.00;5.00;;;;;;;;5089574;27;45897;-78
2021/09/14 00:09:15;;;;;;;;;7.00;6.25;;;;;;;;5089654;27;45447;-78
2021/09/14 00:11:40;;;;;;;;;5.00;5.00;;;;;;;;5087843;27;45509;-77
2021/09/14 00:14:06;;;;;;;;;4.50;4.00;;;;;;;;5088590;27;45367;-78
2021/09/14 00:16:32;;;;;;;;;6.50;6.50;;;;;;;;5092513;27;45427;-77
2021/09/14 00:18:57;;;;;;;;;7.50;5.75;;;;;;;;5089353;27;46169;-77
2021/09/14 00:21:23;;;;;;;;;5.00;5.00;;;;;;;;5089130;27;45434;-77
2021/09/14 00:23:48;;;;;;;;;6.67;6.00;;;;;;;;5083977;27;45483;-77
2021/09/14 00:26:13;;;;;;;;;6.00;6.00;;;;;;;;5091022;27;45977;-77
2021/09/14 00:28:38;;;;;;;;;7.00;7.00;;;;;;;;5088833;27;45416;-77
2021/09/14 00:31:04;;;;;;;;;6.00;4.67;;;;;;;;5090320;27;45291;-77
2021/09/14 00:33:29;;;;;;;;;9.33;6.00;;;;;;;;5091101;27;45374;-77
2021/09/14 00:35:54;;;;;;;;;6.75;5.00;;;;;;;;5090540;27;46004;-77
2021/09/14 00:38:19;;;;;;;;;6.00;6.00;;;;;;;;5093354;27;45273;-77
2021/09/14 00:40:44;;;;;;;;;6.00;6.00;;;;;;;;5090875;27;45353;-77
2021/09/14 00:43:17;;;;;;;;;6.00;6.00;;;;;;;;5083378;27;45481;-78
2021/09/14 00:45:42;;;;;;;;;7.75;7.00;;;;;;;;5089911;27;46197;-77
2021/09/14 00:48:07;;;;;;;;;6.00;6.00;;;;;;;;5080792;27;45576;-77
2021/09/14 00:50:32;;;;;;;;;6.00;6.00;;;;;;;;5094578;27;45468;-77
2021/09/14 00:52:57;;;;;;;;;6.00;6.00;;;;;;;;5098478;27;45646;-77
2021/09/14 00:55:23;;;;;;;;;6.50;5.50;;;;;;;;5094322;27;49104;-77
2021/09/14 01:00:30;;;;;;;;;5.00;5.00;;;;;;;;5069826;22;46759;-78
2021/09/14 01:02:55;;;;;;;;;6.50;6.25;;;;;;;;5053610;28;45635;-78
2021/09/14 01:05:20;;;;;;;;;6.50;6.00;;;;;;;;5036123;28;46989;-78
2021/09/14 01:07:46;;;;;;;;;6.00;6.00;;;;;;;;5055833;28;45541;-78
2021/09/14 01:10:12;;;;;;;;;6.00;6.00;;;;;;;;5054927;28;45437;-78
2021/09/14 01:12:38;;;;;;;;;7.50;5.00;;;;;;;;5055133;28;45544;-78
2021/09/14 01:15:04;;;;;;;;;6.00;6.00;;;;;;;;5028474;28;46297;-78
2021/09/14 01:17:29;;;;;;;;;7.50;5.75;;;;;;;;5054626;28;45821;-78
2021/09/14 01:19:55;;;;;;;;;7.67;7.00;;;;;;;;5050569;28;45540;-79
2021/09/14 01:22:20;;;;;;;;;6.00;6.00;;;;;;;;5042397;28;45509;-78
2021/09/14 01:24:45;;;;;;;;;7.33;6.33;;;;;;;;5050543;28;45441;-78
2021/09/14 01:27:10;;;;;;;;;6.75;5.75;;;;;;;;5054151;28;45393;-78
2021/09/14 01:32:19;;;;;;;;;6.25;6.25;;;;;;;;5046723;28;45734;-78
2021/09/14 01:34:44;;;;;;;;;7.00;6.00;;;;;;;;5054197;28;45599;-78
2021/09/14 01:37:10;;;;;;;;;6.00;6.00;;;;;;;;5054801;28;45530;-78
2021/09/14 01:39:35;;;;;;;;;7.67;5.00;;;;;;;;5054761;28;45493;-78
2021/09/14 01:42:00;;;;;;;;;8.00;6.67;;;;;;;;5054746;28;45323;-78
2021/09/14 01:44:25;;;;;;;;;5.00;5.00;;;;;;;;5034649;28;46010;-78
2021/09/14 01:46:52;;;;;;;;;8.67;6.00;;;;;;;;5054003;28;46985;-78
2021/09/14 01:49:17;;;;;;;;;7.75;6.00;;;;;;;;5055507;28;45299;-78
2021/09/14 01:51:43;;;;;;;;;6.00;5.00;;;;;;;;5054814;28;45488;-78
2021/09/14 01:54:08;;;;;;;;;7.00;6.00;;;;;;;;5052180;28;45533;-78
2021/09/14 01:56:33;;;;;;;;;5.50;5.50;;;;;;;;5054185;28;48362;-78
2021/09/14 01:58:59;;;;;;;;;6.25;6.00;;;;;;;;5053411;28;45541;-78
2021/09/14 02:01:28;;;;;;;;;7.00;6.50;;;;;;;;5027430;28;45486;-78
2021/09/14 02:59:36;;;;;;;;;6.50;6.50;;;;;;;;5053886;28;45500;-78
2021/09/14 03:02:02;;;;;;;;;6.00;6.00;;;;;;;;5053993;28;45580;-78
2021/09/14 03:04:27;;;;;;;;;10.25;7.00;;;;;;;;5053417;28;45348;-78
2021/09/14 03:06:53;;;;;;;;;7.67;7.33;;;;;;;;5043892;28;46083;-78
2021/09/14 03:09:18;;;;;;;;;7.25;6.25;;;;;;;;5050673;28;45406;-78
2021/09/14 03:11:43;;;;;;;;;9.00;7.33;;;;;;;;5045671;28;45346;-78
2021/09/14 03:14:09;;;;;;;;;7.67;7.67;;;;;;;;5050713;28;50573;-78
2021/09/14 03:16:34;;;;;;;;;11.33;8.00;;;;;;;;5034376;28;48189;-78
2021/09/14 03:18:59;;;;;;;;;7.00;7.00;;;;;;;;5042913;28;46236;-78
2021/09/14 03:21:25;;;;;;;;;9.00;8.00;;;;;;;;5051845;28;48381;-78
2021/09/14 03:23:50;;;;;;;;;6.00;6.00;;;;;;;;5053254;28;45436;-78
2021/09/14 03:26:15;;;;;;;;;8.00;6.00;;;;;;;;5052272;28;46375;-78
2021/09/14 03:28:40;;;;;;;;;8.67;7.00;;;;;;;;5053141;28;45513;-78
2021/09/14 03:31:06;;;;;;;;;8.00;7.00;;;;;;;;5028624;28;46784;-78
2021/09/14 03:33:31;;;;;;;;;8.25;6.75;;;;;;;;5052848;28;45593;-78
2021/09/14 03:35:56;;;;;;;;;7.75;7.25;;;;;;;;5052349;28;45910;-78
2021/09/14 03:38:22;;;;;;;;;8.00;8.00;;;;;;;;5032410;28;45370;-78
2021/09/14 03:40:47;;;;;;;;;10.00;8.50;;;;;;;;5051040;28;45569;-78
2021/09/14 03:43:13;;;;;;;;;9.50;8.00;;;;;;;;5053341;28;45460;-78
2021/09/14 03:45:39;;;;;;;;;9.50;9.50;;;;;;;;5032086;28;47340;-78
2021/09/14 03:48:04;;;;;;;;;9.00;9.00;;;;;;;;5051626;28;45327;-77
2021/09/14 03:50:29;;;;;;;;;7.50;6.50;;;;;;;;5037241;28;45603;-78
2021/09/14 03:52:54;;;;;;;;;10.00;9.00;;;;;;;;5052174;28;45462;-78
2021/09/14 03:55:19;;;;;;;;;10.00;7.67;;;;;;;;5051915;28;45399;-78
2021/09/14 03:57:45;;;;;;;;;10.00;7.00;;;;;;;;5051358;28;45469;-78
2021/09/14 04:00:11;;;;;;;;;8.33;7.33;;;;;;;;5051511;28;45398;-78
2021/09/14 04:02:40;;;;;;;;;9.00;7.00;;;;;;;;5027358;28;45458;-77
2021/09/14 04:10:38;;;;;;;;;8.00;8.00;;;;;;;;5053778;28;45487;-78
2021/09/14 04:13:03;;;;;;;;;9.25;9.25;;;;;;;;5056592;28;45501;-78
2021/09/14 04:15:29;;;;;;;;;8.00;8.00;;;;;;;;5054692;28;46211;-79
2021/09/14 04:17:54;;;;;;;;;8.25;7.75;;;;;;;;5055325;28;45499;-78
2021/09/14 04:20:19;;;;;;;;;10.33;9.00;;;;;;;;5055884;28;45391;-78
2021/09/14 04:22:44;;;;;;;;;7.25;7.25;;;;;;;;5056193;28;45354;-78
2021/09/14 04:25:10;;;;;;;;;9.25;8.75;;;;;;;;5056263;28;45562;-78
2021/09/14 04:27:35;;;;;;;;;12.75;9.00;;;;;;;;5055479;28;45517;-78
2021/09/14 04:30:00;;;;;;;;;7.00;6.67;;;;;;;;5037040;28;45540;-77
2021/09/14 04:32:25;;;;;;;;;8.00;8.00;;;;;;;;5055146;28;45447;-78
2021/09/14 04:34:51;;;;;;;;;10.33;9.67;;;;;;;;5055067;28;45460;-78
2021/09/14 04:37:16;;;;;;;;;10.00;10.00;;;;;;;;5055662;28;45414;-77
2021/09/14 04:39:41;;;;;;;;;9.00;9.00;;;;;;;;5061001;28;45529;-77
2021/09/14 04:42:06;;;;;;;;;12.00;9.67;;;;;;;;5055463;28;45490;-77
2021/09/14 04:44:32;;;;;;;;;10.00;9.67;;;;;;;;5029905;28;46154;-77
2021/09/14 04:46:57;;;;;;;;;10.33;9.00;;;;;;;;5047100;28;45606;-78
2021/09/14 04:49:22;;;;;;;;;12.00;10.00;;;;;;;;5028951;28;45291;-78
2021/09/14 04:51:47;;;;;;;;;10.67;10.00;;;;;;;;5034053;28;45413;-77
2021/09/14 04:54:13;;;;;;;;;11.00;10.67;;;;;;;;5054466;28;45946;-77
2021/09/14 04:56:38;;;;;;;;;12.67;10.00;;;;;;;;5056979;28;45495;-77
2021/09/14 04:59:03;;;;;;;;;9.33;8.00;;;;;;;;5051326;28;45478;-78
2021/09/14 05:01:28;;;;;;;;;12.75;9.00;;;;;;;;5047868;28;45522;-78
2021/09/14 05:03:54;;;;;;;;;11.00;10.00;;;;;;;;5037219;28;47013;-77
2021/09/14 05:06:19;;;;;;;;;12.00;10.00;;;;;;;;5054762;28;45527;-77
2021/09/14 05:08:44;;;;;;;;;11.33;10.33;;;;;;;;5054606;28;45634;-77
2021/09/14 05:11:12;;;;;;;;;14.00;9.67;;;;;;;;5054737;28;45606;-78
2021/09/14 05:13:38;;;;;;;;;13.25;9.75;;;;;;;;5049873;28;45600;-77
2021/09/14 05:16:03;;;;;;;;;14.00;9.67;;;;;;;;5036581;28;46054;-77
2021/09/14 05:18:29;;;;;;;;;11.25;10.00;;;;;;;;5055667;28;45545;-78
2021/09/14 05:20:56;;;;;;;;;9.50;8.00;;;;;;;;5053113;28;45446;-78
2021/09/14 05:23:30;;;;;;;;;9.25;9.00;;;;;;;;5057672;28;45509;-78
2021/09/14 05:25:55;;;;;;;;;11.25;10.50;;;;;;;;5055100;28;45508;-78
2021/09/14 05:28:21;;;;;;;;;11.00;10.25;;;;;;;;5026232;28;45865;-78
2021/09/14 05:30:47;;;;;;;;;10.00;10.00;;;;;;;;5054536;28;45477;-78
2021/09/14 05:33:13;;;;;;;;;11.75;10.25;;;;;;;;5053623;28;46052;-78
2021/09/14 05:35:41;;;;;;;;;7.25;7.25;;;;;;;;5053122;28;45439;-78
2021/09/14 05:38:06;;;;;;;;;12.00;10.00;;;;;;;;5054512;28;46416;-78
2021/09/14 05:40:31;;;;;;;;;11.00;10.50;;;;;;;;5054123;28;45564;-77
2021/09/14 05:42:57;;;;;;;;;10.00;10.00;;;;;;;;5054798;28;45451;-77
2021/09/14 05:45:22;;;;;;;;;8.00;8.00;;;;;;;;5045512;28;45414;-78
2021/09/14 05:47:47;;;;;;;;;11.33;8.67;;;;;;;;5050938;28;45587;-77
2021/09/14 05:50:12;;;;;;;;;14.67;12.67;;;;;;;;5054122;28;45474;-77
2021/09/14 05:52:37;;;;;;;;;12.33;10.33;;;;;;;;5029107;28;46235;-77
2021/09/14 05:55:03;;;;;;;;;17.00;11.33;;;;;;;;5034228;28;45518;-77
2021/09/14 05:57:28;;;;;;;;;10.00;8.75;;;;;;;;5053340;28;45320;-77
2021/09/14 05:59:54;;;;;;;;;13.33;10.00;;;;;;;;5054009;28;45468;-77
2021/09/14 06:02:19;;;;;;;;;8.00;8.00;;;;;;;;5053869;28;45469;-77
2021/09/14 06:04:44;;;;;;;;;15.33;11.67;;;;;;;;5052908;28;45461;-77
2021/09/14 06:07:10;;;;;;;;;9.67;9.00;;;;;;;;5035622;28;45465;-77
2021/09/14 06:09:35;;;;;;;;;10.00;10.00;;;;;;;;5052901;28;45484;-77
2021/09/14 06:12:00;;;;;;;;;10.33;10.00;;;;;;;;5034640;28;47213;-78
2021/09/14 06:14:25;;;;;;;;;9.00;9.00;;;;;;;;5032609;28;45511;-78
2021/09/14 06:16:51;;;;;;;;;9.50;9.50;;;;;;;;5039063;28;45470;-77
2021/09/14 06:19:17;;;;;;;;;8.67;8.67;;;;;;;;5048693;28;45315;-77
2021/09/14 06:21:42;;;;;;;;;18.50;11.00;;;;;;;;5051327;28;45377;-77
2021/09/14 06:24:07;;;;;;;;;14.67;10.00;;;;;;;;5052850;28;45500;-77
2021/09/14 06:26:33;;;;;;;;;8.50;8.00;;;;;;;;5045814;28;45657;-66
2021/09/14 06:28:59;;;;;;;;;14.25;10.00;;;;;;;;5030112;28;46379;-66
2021/09/14 06:31:24;;;;;;;;;12.50;10.25;;;;;;;;5052163;28;45996;-65
2021/09/14 06:33:49;;;;;;;;;10.67;9.00;;;;;;;;5051355;28;45461;-66
2021/09/14 06:36:14;;;;;;;;;10.67;10.67;;;;;;;;5053467;28;45379;-72
2021/09/14 06:38:40;;;;;;;;;12.33;9.67;;;;;;;;5053376;28;45615;-64
2021/09/14 06:41:05;;;;;;;;;10.00;7.33;;;;;;;;5052407;28;46128;-65
2021/09/14 06:43:31;;;;;;;;;10.00;10.00;;;;;;;;5050841;28;45592;-65
2021/09/14 06:45:56;;;;;;;;;11.67;9.00;;;;;;;;5053111;28;45514;-66
2021/09/14 06:48:21;;;;;;;;;12.33;9.33;;;;;;;;5051117;28;45463;-66
2021/09/14 06:50:48;;;;;;;;;9.50;8.75;;;;;;;;5053338;28;45403;-65
2021/09/14 06:53:13;;;;;;;;;15.00;10.50;;;;;;;;5049325;28;45815;-65
2021/09/14 06:55:39;;;;;;;;;10.00;8.33;;;;;;;;5052277;28;45520;-65
2021/09/14 06:58:04;;;;;;;;;14.33;9.67;;;;;;;;5054548;28;45422;-64
2021/09/14 07:00:29;;;;;;;;;15.33;10.00;;;;;;;;5044427;28;46652;-65
2021/09/14 07:02:54;;;;;;;;;13.50;9.50;;;;;;;;5046797;28;45591;-63
2021/09/14 07:05:20;;;;;;;;;12.33;10.67;;;;;;;;5052503;28;45473;-78
2021/09/14 07:07:45;;;;;;;;;11.00;10.50;;;;;;;;5052922;28;45449;-77
2021/09/14 07:10:11;;;;;;;;;9.50;9.50;;;;;;;;5040489;28;45581;-78
2021/09/14 07:12:36;;;;;;;;;9.75;8.50;;;;;;;;5048699;28;45520;-78
2021/09/14 07:15:03;;;;;;;;;10.33;9.33;;;;;;;;5051280;28;45452;-78
2021/09/14 07:17:28;;;;;;;;;11.25;10.00;;;;;;;;5052544;28;45341;-77
2021/09/14 07:19:53;;;;;;;;;10.50;10.50;;;;;;;;5051984;28;45540;-79
2021/09/14 07:22:19;;;;;;;;;10.33;10.33;;;;;;;;5045847;28;45414;-77
2021/09/14 07:24:44;;;;;;;;;12.67;9.67;;;;;;;;5053750;28;45605;-77
2021/09/14 07:27:09;;;;;;;;;10.00;10.00;;;;;;;;5047709;28;45354;-77
2021/09/14 07:29:35;;;;;;;;;10.00;10.00;;;;;;;;5052907;28;45947;-76
2021/09/14 07:32:01;;;;;;;;;10.00;10.00;;;;;;;;5051200;28;45634;-77
2021/09/14 07:34:29;;;;;;;;;11.00;9.00;;;;;;;;5050985;28;45454;-76
2021/09/14 07:36:54;;;;;;;;;13.00;10.00;;;;;;;;5053283;28;45446;-77
2021/09/14 07:39:19;;;;;;;;;13.00;11.00;;;;;;;;5052457;28;45540;-77
2021/09/14 07:41:44;;;;;;;;;12.00;11.00;;;;;;;;5053123;28;45505;-76
2021/09/14 07:44:09;;;;;;;;;9.67;8.67;;;;;;;;5053302;28;45476;-76
2021/09/14 07:46:35;;;;;;;;;10.67;8.00;;;;;;;;5052041;28;45587;-76
2021/09/14 07:49:00;;;;;;;;;11.00;8.00;;;;;;;;5053949;28;47112;-79
2021/09/14 07:51:26;;;;;;;;;10.67;9.33;;;;;;;;5044312;28;45469;-76
2021/09/14 07:53:51;;;;;;;;;10.00;10.00;;;;;;;;5042620;28;45622;-77
2021/09/14 07:56:16;;;;;;;;;9.25;9.25;;;;;;;;5047152;28;45582;-76
2021/09/14 07:58:42;;;;;;;;;13.67;10.00;;;;;;;;5052641;28;46509;-77
2021/09/14 08:01:07;;;;;;;;;10.00;9.00;;;;;;;;5035157;28;45752;-77
2021/09/14 08:03:33;;;;;;;;;8.00;8.00;;;;;;;;5032143;28;45552;-77
2021/09/14 08:05:58;;;;;;;;;10.50;10.00;;;;;;;;5052130;28;45486;-76
2021/09/14 08:08:23;;;;;;;;;13.00;11.33;;;;;;;;5062190;28;46185;-75
2021/09/14 08:10:48;;;;;;;;;11.33;11.33;;;;;;;;5052096;28;45369;-76
2021/09/14 08:13:13;;;;;;;;;13.67;12.67;;;;;;;;5052784;28;45505;-75
2021/09/14 08:15:39;;;;;;;;;11.67;10.00;;;;;;;;5052529;28;45521;-77
2021/09/14 08:18:04;;;;;;;;;11.25;11.25;;;;;;;;5052033;28;45900;-78
2021/09/14 08:20:29;;;;;;;;;10.00;9.00;;;;;;;;5032394;28;46184;-78
2021/09/14 08:22:54;;;;;;;;;13.67;12.00;;;;;;;;5053280;28;45619;-78
2021/09/14 08:25:20;;;;;;;;;10.67;10.00;;;;;;;;5052172;28;45310;-78
2021/09/14 08:27:45;;;;;;;;;17.00;13.50;;;;;;;;5053200;28;45651;-78
2021/09/14 08:30:10;;;;;;;;;14.33;11.33;;;;;;;;5033494;28;45779;-78
2021/09/14 08:32:36;;;;;;;;;11.00;9.00;;;;;;;;5052403;28;45484;-77
2021/09/14 08:35:01;;;;;;;;;12.33;11.33;;;;;;;;5052176;28;45604;-78
2021/09/14 08:37:26;;;;;;;;;12.75;12.75;;;;;;;;5052142;28;45432;-78
2021/09/14 08:39:52;;;;;;;;;14.33;12.00;;;;;;;;5034490;28;45786;-78
2021/09/14 08:42:19;;;;;;;;;15.00;12.50;;;;;;;;5051971;28;45268;-77
2021/09/14 08:44:44;;;;;;;;;11.75;11.75;;;;;;;;5051966;28;45469;-77
2021/09/14 08:47:10;;;;;;;;;14.67;12.67;;;;;;;;5051381;28;48272;-78
2021/09/14 08:49:35;;;;;;;;;14.33;12.67;;;;;;;;5051997;28;45645;-78
2021/09/14 08:52:00;;;;;;;;;15.75;12.25;;;;;;;;5054297;28;45723;-77
2021/09/14 08:54:26;;;;;;;;;11.25;10.00;;;;;;;;5054448;28;45519;-78
2021/09/14 08:56:51;;;;;;;;;10.75;10.75;;;;;;;;5054433;28;45484;-77
2021/09/14 08:59:29;;;;;;;;;13.75;10.00;;;;;;;;5054305;28;45481;-78
2021/09/14 09:01:58;;;;;;;;;11.50;9.75;;;;;;;;5055445;28;45468;-78
2021/09/14 09:04:23;;;;;;;;;13.00;11.25;;;;;;;;5055311;28;45375;-78
2021/09/14 09:06:49;;;;;;;;;13.00;13.00;;;;;;;;5037374;28;47631;-77
2021/09/14 09:09:15;;;;;;;;;13.50;12.25;;;;;;;;5054490;28;45521;-78
2021/09/14 09:12:01;;;;;;;;;14.25;12.00;;;;;;;;5035511;28;45613;-78
2021/09/14 09:14:36;;;;;;;;;12.25;11.00;;;;;;;;5054629;28;45890;-77
2021/09/14 09:17:02;;;;;;;;;13.50;11.25;;;;;;;;5036474;28;48112;-77
2021/09/14 09:19:27;;;;;;;;;13.25;10.50;;;;;;;;5054828;28;45359;-78
2021/09/14 09:21:56;;;;;;;;;14.00;12.00;;;;;;;;5055807;28;45745;-77
2021/09/14 09:24:22;;;;;;;;;13.25;12.00;;;;;;;;5054424;28;45505;-78
2021/09/14 09:26:47;;;;;;;;;10.00;10.00;;;;;;;;5054802;28;45806;-77
2021/09/14 09:29:19;;;;;;;;;18.67;11.67;;;;;;;;5036187;28;45450;-77
2021/09/14 09:31:45;;;;;;;;;13.00;10.25;;;;;;;;5053484;28;45546;-77
2021/09/14 09:34:11;;;;;;;;;16.50;12.25;;;;;;;;5055071;28;45303;-80
2021/09/14 09:36:40;;;;;;;;;13.00;11.75;;;;;;;;5054035;28;45961;-77
2021/09/14 09:39:06;;;;;;;;;16.00;14.75;;;;;;;;5036421;28;45272;-77
2021/09/14 09:41:38;;;;;;;;;12.25;10.25;;;;;;;;5052807;28;45491;-77
2021/09/14 09:44:08;;;;;;;;;11.25;10.00;;;;;;;;5036292;28;45725;-78
2021/09/14 09:46:33;;;;;;;;;11.25;11.25;;;;;;;;5054403;28;45966;-78
2021/09/14 09:49:01;;;;;;;;;11.00;10.00;;;;;;;;5054894;28;45541;-77
2021/09/14 09:51:26;;;;;;;;;14.25;12.75;;;;;;;;5054395;28;45452;-77
2021/09/14 09:53:52;;;;;;;;;11.75;11.00;;;;;;;;5054607;28;45613;-78
2021/09/14 09:56:18;;;;;;;;;9.75;9.75;;;;;;;;5043498;28;45533;-78
2021/09/14 09:58:45;;;;;;;;;9.25;9.25;;;;;;;;5054255;28;45681;-78
2021/09/14 10:01:19;;;;;;;;;11.00;11.00;;;;;;;;5053999;28;45724;-78
2021/09/14 10:03:57;;;;;;;;;9.00;9.00;;;;;;;;5052481;28;45438;-77
2021/09/14 10:06:27;;;;;;;;;10.75;9.25;;;;;;;;5054094;28;48693;-77
2021/09/14 10:08:54;;;;;;;;;8.25;8.25;;;;;;;;5053214;28;46002;-77
2021/09/14 10:11:24;;;;;;;;;11.00;8.25;;;;;;;;5060753;28;45517;-77
2021/09/14 10:13:49;;;;;;;;;11.75;11.00;;;;;;;;5052339;28;45340;-78
2021/09/14 10:16:23;;;;;;;;;6.67;6.67;;;;;;;;5054012;28;46020;-77
2021/09/14 10:18:49;;;;;;;;;9.00;8.00;;;;;;;;5046240;28;45488;-77
2021/09/14 10:21:18;;;;;;;;;7.67;6.00;;;;;;;;5055138;28;45374;-78
2021/09/14 10:23:52;;;;;;;;;8.00;7.00;;;;;;;;5046632;28;45533;-78
2021/09/14 10:26:17;;;;;;;;;8.50;6.75;;;;;;;;5045609;28;45631;-77
2021/09/14 10:28:43;;;;;;;;;10.67;10.00;;;;;;;;5053960;28;45410;-78
2021/09/14 10:31:22;;;;;;;;;9.25;8.00;;;;;;;;5055017;28;45272;-77
2021/09/14 10:33:58;;;;;;;;;4.25;4.25;;;;;;;;5054220;28;45474;-78
2021/09/14 10:36:23;;;;;;;;;6.00;6.00;;;;;;;;5053769;28;45413;-78
2021/09/14 10:38:49;;;;;;;;;8.33;8.00;;;;;;;;5054442;28;45374;-78
2021/09/14 10:41:15;;;;;;;;;7.50;7.25;;;;;;;;5053943;28;45458;-78
2021/09/14 10:43:42;;;;;;;;;10.75;8.00;;;;;;;;5050963;28;46851;-78
2021/09/14 10:46:07;;;;;;;;;7.75;7.50;;;;;;;;5050097;28;47160;-78
2021/09/14 10:48:33;;;;;;;;;8.75;8.75;;;;;;;;5053358;28;45604;-78
2021/09/14 10:51:12;;;;;;;;;11.75;7.25;;;;;;;;5033646;28;45466;-78
2021/09/14 10:53:37;;;;;;;;;7.25;6.75;;;;;;;;5048371;28;45574;-78
2021/09/14 10:56:03;;;;;;;;;8.00;8.00;;;;;;;;5051611;28;45497;-78
2021/09/14 10:58:38;;;;;;;;;7.00;7.00;;;;;;;;5046387;28;45487;-79
2021/09/14 11:01:03;;;;;;;;;10.75;7.75;;;;;;;;5053642;28;45430;-78
2021/09/14 11:03:28;;;;;;;;;8.00;8.00;;;;;;;;5048439;28;45733;-78
2021/09/14 11:05:54;;;;;;;;;6.00;6.00;;;;;;;;5048847;28;46218;-79
2021/09/14 11:08:23;;;;;;;;;8.00;7.00;;;;;;;;5050269;28;45378;-78
2021/09/14 11:10:49;;;;;;;;;8.25;7.00;;;;;;;;5050615;28;45538;-78
2021/09/14 11:13:19;;;;;;;;;7.50;7.50;;;;;;;;5047984;28;45690;-66
2021/09/14 11:15:44;;;;;;;;;8.25;7.00;;;;;;;;5047640;28;46156;-68
2021/09/14 11:18:09;;;;;;;;;7.00;5.67;;;;;;;;5041799;28;45470;-68
2021/09/14 11:20:35;;;;;;;;;6.67;6.00;;;;;;;;5052326;28;45510;-68
2021/09/14 11:23:02;;;;;;;;;7.25;6.00;;;;;;;;5045950;28;45544;-68
2021/09/14 11:25:29;;;;;;;;;8.25;7.00;;;;;;;;5032747;28;46211;-67
2021/09/14 11:27:58;;;;;;;;;7.25;6.00;;;;;;;;5046895;28;45645;-68
2021/09/14 11:30:24;;;;;;;;;9.75;6.50;;;;;;;;5051569;28;45495;-68
2021/09/14 11:32:50;;;;;;;;;6.25;5.75;;;;;;;;5052604;28;45474;-68
2021/09/14 11:35:16;;;;;;;;;7.00;7.00;;;;;;;;5052741;28;45600;-68
2021/09/14 11:37:41;;;;;;;;;4.25;4.25;;;;;;;;5052434;28;45516;-67
2021/09/14 11:40:27;;;;;;;;;6.75;5.75;;;;;;;;5033697;28;45549;-68
2021/09/14 11:42:53;;;;;;;;;7.50;6.00;;;;;;;;5052778;28;45339;-68
2021/09/14 11:45:21;;;;;;;;;5.50;5.25;;;;;;;;5050230;28;45596;-68
2021/09/14 11:47:46;;;;;;;;;5.75;3.50;;;;;;;;5051985;28;45731;-68
2021/09/14 11:50:21;;;;;;;;;4.33;3.67;;;;;;;;5052104;28;45556;-68
2021/09/14 11:52:47;;;;;;;;;7.00;5.25;;;;;;;;5049376;28;45435;-67
2021/09/14 11:55:12;;;;;;;;;6.33;4.67;;;;;;;;5050197;28;47172;-68
2021/09/14 11:57:37;;;;;;;;;6.75;5.75;;;;;;;;5051130;28;45343;-68
2021/09/14 12:00:09;;;;;;;;;6.67;5.67;;;;;;;;5048048;28;45415;-69
2021/09/14 12:02:34;;;;;;;;;5.50;5.00;;;;;;;;5043116;28;45636;-69
2021/09/14 12:05:00;;;;;;;;;5.00;5.00;;;;;;;;5046984;28;46090;-68
2021/09/14 12:07:25;;;;;;;;;5.75;5.75;;;;;;;;5050553;28;45426;-68
2021/09/14 12:10:00;;;;;;;;;7.33;5.33;;;;;;;;5046698;28;45407;-69
2021/09/14 12:12:25;;;;;;;;;11.75;9.00;;;;;;;;5047581;28;45540;-68
2021/09/14 12:14:54;;;;;;;;;9.67;8.33;;;;;;;;5051053;28;46017;-66
2021/09/14 12:17:25;;;;;;;;;6.50;6.50;;;;;;;;5041915;28;45733;-66
2021/09/14 12:19:51;;;;;;;;;4.00;4.00;;;;;;;;5048822;28;45418;-67
2021/09/14 12:22:16;;;;;;;;;7.67;4.67;;;;;;;;5035657;28;45434;-68
2021/09/14 12:24:41;;;;;;;;;8.00;6.00;;;;;;;;5042681;28;45941;-67
2021/09/14 12:27:06;;;;;;;;;5.33;5.00;;;;;;;;5034460;28;45360;-68
2021/09/14 12:29:32;;;;;;;;;5.75;5.75;;;;;;;;5051043;28;45494;-68
2021/09/14 12:31:57;;;;;;;;;7.67;5.67;;;;;;;;5052268;28;45571;-68
2021/09/14 12:34:22;;;;;;;;;5.50;5.00;;;;;;;;5039683;28;46043;-73
2021/09/14 12:36:47;;;;;;;;;4.75;4.75;;;;;;;;5041787;28;45521;-73
2021/09/14 12:39:13;;;;;;;;;7.25;4.25;;;;;;;;5048616;28;45331;-73
2021/09/14 12:41:38;;;;;;;;;6.33;4.67;;;;;;;;5051270;28;45418;-73
2021/09/14 12:44:04;;;;;;;;;7.75;6.00;;;;;;;;5049223;28;45533;-73
2021/09/14 12:46:29;;;;;;;;;4.00;4.00;;;;;;;;5035062;28;45449;-73
2021/09/14 12:48:54;;;;;;;;;5.50;4.50;;;;;;;;5054971;28;45608;-73
2021/09/14 12:51:19;;;;;;;;;8.00;4.00;;;;;;;;5054243;28;45549;-75
2021/09/14 12:53:45;;;;;;;;;4.33;3.00;;;;;;;;5054194;28;45781;-75
2021/09/14 12:56:10;;;;;;;;;8.00;4.00;;;;;;;;5053983;28;45383;-75
2021/09/14 12:58:36;;;;;;;;;5.75;5.00;;;;;;;;5054111;28;45444;-74
2021/09/14 13:01:01;;;;;;;;;4.75;3.25;;;;;;;;5055329;28;45485;-74
2021/09/14 13:03:26;;;;;;;;;4.25;4.25;;;;;;;;5054632;28;45505;-73
2021/09/14 13:05:51;;;;;;;;;8.67;5.33;;;;;;;;5055117;28;45439;-73
2021/09/14 13:08:16;;;;;;;;;4.00;4.00;;;;;;;;5055252;28;45722;-73
2021/09/14 13:10:42;;;;;;;;;5.00;4.00;;;;;;;;5053985;28;45323;-73
2021/09/14 13:18:35;;;;;;;;;7.00;5.00;;;;;;;;5053584;28;45703;-79
2021/09/14 13:21:00;;;;;;;;;7.00;7.00;;;;;;;;5053300;28;45413;-71
2021/09/14 13:23:25;;;;;;;;;8.00;7.00;;;;;;;;5043509;28;47077;-73
2021/09/14 13:25:51;;;;;;;;;6.50;4.75;;;;;;;;5043459;28;45564;-79
2021/09/14 13:28:17;;;;;;;;;8.00;6.00;;;;;;;;5048837;28;45680;-79
2021/09/14 13:30:42;;;;;;;;;7.25;5.75;;;;;;;;5053599;28;47411;-73
2021/09/14 13:33:07;;;;;;;;;7.67;4.67;;;;;;;;5048695;28;46732;-85
2021/09/14 13:35:33;;;;;;;;;6.00;5.00;;;;;;;;5054330;28;45408;-79
2021/09/14 13:37:58;;;;;;;;;4.25;4.00;;;;;;;;5051459;28;45392;-78
2021/09/14 13:40:23;;;;;;;;;7.00;4.67;;;;;;;;5047395;28;45403;-79
2021/09/14 13:42:56;;;;;;;;;5.67;5.67;;;;;;;;5050853;28;45768;-79
2021/09/14 13:48:06;;;;;;;;;5.00;5.00;;;;;;;;5052095;28;45479;-80
2021/09/14 13:50:32;;;;;;;;;2.75;2.75;;;;;;;;5053548;28;45924;-80
2021/09/14 13:52:57;;;;;;;;;8.75;3.50;;;;;;;;5052522;28;45895;-80
2021/09/14 13:55:22;;;;;;;;;5.00;5.00;;;;;;;;5055434;28;45304;-80
2021/09/14 13:57:47;;;;;;;;;5.00;5.00;;;;;;;;5055453;28;45419;-80
2021/09/14 14:00:13;;;;;;;;;5.67;4.00;;;;;;;;5054621;28;45778;-80
2021/09/14 14:02:38;;;;;;;;;4.75;4.75;;;;;;;;5053434;28;45493;-80
2021/09/14 14:05:04;;;;;;;;;7.75;4.25;;;;;;;;5054149;28;48215;-80
2021/09/14 14:07:29;;;;;;;;;5.50;5.50;;;;;;;;5054907;28;45451;-80
2021/09/14 14:09:54;;;;;;;;;4.67;4.67;;;;;;;;5055841;28;45486;-80
2021/09/14 14:12:19;;;;;;;;;5.75;3.50;;;;;;;;5052702;28;45590;-79
2021/09/14 14:14:45;;;;;;;;;4.67;3.33;;;;;;;;5054472;28;45541;-80
2021/09/14 14:17:10;;;;;;;;;5.67;3.67;;;;;;;;5054686;28;45577;-79
2021/09/14 14:19:35;;;;;;;;;4.75;4.50;;;;;;;;5054247;28;45486;-79
2021/09/14 14:22:01;;;;;;;;;5.00;5.00;;;;;;;;5055212;28;46110;-79
2021/09/14 14:24:26;;;;;;;;;5.33;3.00;;;;;;;;5053309;28;45416;-79
2021/09/14 14:26:51;;;;;;;;;4.67;4.67;;;;;;;;5054592;28;45273;-79
2021/09/14 14:29:16;;;;;;;;;10.00;5.00;;;;;;;;5054570;28;45410;-79
2021/09/14 14:31:41;;;;;;;;;7.00;4.33;;;;;;;;5054184;28;46175;-79
2021/09/14 14:34:07;;;;;;;;;4.67;2.00;;;;;;;;5053888;28;45292;-79
2021/09/14 14:36:32;;;;;;;;;6.67;6.00;;;;;;;;5054351;28;45556;-79
2021/09/14 14:38:57;;;;;;;;;5.67;4.00;;;;;;;;5045210;28;45505;-79
2021/09/14 14:41:22;;;;;;;;;4.00;4.00;;;;;;;;5054153;28;45550;-79
2021/09/14 14:43:47;;;;;;;;;5.00;4.00;;;;;;;;5053772;28;45501;-79
2021/09/14 14:46:13;;;;;;;;;5.33;4.00;;;;;;;;5054465;28;45534;-79
2021/09/14 14:48:38;;;;;;;;;7.75;6.75;;;;;;;;5052100;28;45438;-79
2021/09/14 14:51:03;;;;;;;;;5.25;4.75;;;;;;;;5054046;28;46107;-79
2021/09/14 14:53:28;;;;;;;;;6.67;5.67;;;;;;;;5054362;28;45438;-79
2021/09/14 14:55:54;;;;;;;;;6.00;6.00;;;;;;;;5054136;28;45358;-79
2021/09/14 14:58:19;;;;;;;;;6.50;5.00;;;;;;;;5052853;28;45471;-79
2021/09/14 15:00:45;;;;;;;;;6.00;5.00;;;;;;;;5054413;28;45464;-79
2021/09/14 15:03:11;;;;;;;;;6.75;3.75;;;;;;;;5053583;28;45304;-79
2021/09/14 15:05:36;;;;;;;;;6.00;5.25;;;;;;;;5053787;28;45343;-79
2021/09/14 15:08:01;;;;;;;;;6.67;6.33;;;;;;;;5052225;28;45411;-79
2021/09/14 15:10:27;;;;;;;;;7.75;5.25;;;;;;;;5053628;28;45966;-79
2021/09/14 15:12:52;;;;;;;;;6.00;5.00;;;;;;;;5048038;28;46877;-79
2021/09/14 15:15:17;;;;;;;;;10.25;7.50;;;;;;;;5048891;28;45614;-79
2021/09/14 15:17:43;;;;;;;;;7.75;7.75;;;;;;;;5051694;28;45680;-79
2021/09/14 15:20:10;;;;;;;;;7.25;7.25;;;;;;;;5052375;28;45905;-79
2021/09/14 15:22:35;;;;;;;;;7.00;6.00;;;;;;;;5052804;28;45768;-79
2021/09/14 15:25:00;;;;;;;;;6.50;6.50;;;;;;;;5053922;28;45433;-79
2021/09/14 15:27:26;;;;;;;;;7.00;5.00;;;;;;;;5053454;28;45545;-79
2021/09/14 15:29:55;;;;;;;;;6.00;5.00;;;;;;;;5053355;28;46127;-79
2021/09/14 15:32:20;;;;;;;;;10.50;7.50;;;;;;;;5042642;28;45646;-79
2021/09/14 15:34:45;;;;;;;;;7.33;6.00;;;;;;;;5051928;28;45281;-79
2021/09/14 15:37:13;;;;;;;;;6.67;6.00;;;;;;;;5053885;28;45455;-79
2021/09/14 15:39:38;;;;;;;;;7.00;7.00;;;;;;;;5045534;28;45877;-79
2021/09/14 15:42:03;;;;;;;;;8.00;7.00;;;;;;;;5034293;28;45326;-79
2021/09/14 15:44:29;;;;;;;;;6.67;6.33;;;;;;;;5034993;28;45326;-79